ENRAENSD

Guest
Details From ENRA - Mo I Rana Rossvoll
To ENSD - Sandane
Flight Number -
Tags Generated
Created
Modified
Stats Distance 347 nm / 642 km
Max Altitude 0 ft / 0 m
Waypoints 3
Social Downloads 5
Likes 0
Share VATSIM

Download

Looking for another format? Having issues loading an existing format? Contact us
Advertisement - Login to hide

Notes

Generated

Route

ENRA AD ENSD

ID Type Via Altitude Latitude Longitude Leg Dist Tot Dist Heading (true) Name
O ENRA APT - 0 ft / 0 m 66.36667˚ 14.29540˚ - 0 nm - -
AD NDB - 0 ft / 0 m 61.82957˚ 6.11594˚ 346 nm 346 nm 222° / 215° ANDA NDB
O ENSD APT - 0 ft / 0 m 61.82989˚ 6.10153˚ 0 nm 346 nm 273° / 273° -

Altitude Profile

Advertisement - Login to hide

Weather


0- 5 10 15 20 25 30 35+ Temperature / ° C

Clouds and Precipitation
Forecast for 2017-12-14 00:00 UTC. Updated 2 hours ago

Ground ~20,000 ft ~40,000 ft Winds

ENRA

Details ICAO ENRA (MQN)
Name Mo i Rana Rossvoll
Region Norway
Timezone Europe/Oslo (UTC+1.0)
Stats Elevation 226 ft / 69 m (AMSL)
Location 66.363838° 14.301646°
Runways 1
Magnetic Variation 5.529° E

METAR

ENRA 132020Z 14004KT CAVOK M19/M21 Q0986

Decode

TAF

Not found

Departure Runways

ID Width Length Bearing (true) Bearing (mag) Surface Threshold Offset Overrun Length
14 98 ft / 30 m 2,759 ft / 841 m 138.49° 132.96° Asphalt 0 ft / 0 m 0 ft / 0 m
32 98 ft / 30 m 2,759 ft / 841 m 318.51° 312.98° Asphalt 0 ft / 0 m 0 ft / 0 m

ENSD

Details ICAO ENSD (SDN)
Name Sandane
Region Norway
Timezone Europe/Oslo (UTC+1.0)
Stats Elevation 177 ft / 54 m (AMSL)
Location 61.830269° 6.109493°
Runways 1
Magnetic Variation 1.182° E

METAR

ENSD 132020Z VRB02KT 9999 FEW010 SCT045 00/M00 Q0979 RMK WIND 1138FT 07005KT

Decode

TAF

Not found

Destination Runways

ID Width Length Bearing (true) Bearing (mag) Surface Threshold Offset Overrun Length
08 98 ft / 30 m 2,759 ft / 841 m 84.29° 83.11° Asphalt 0 ft / 0 m 0 ft / 0 m
26 98 ft / 30 m 2,759 ft / 841 m 264.31° 263.13° Asphalt 0 ft / 0 m 0 ft / 0 m